createdAt,value
2019-01-11T00:02:00.979Z,100314.47
2019-01-11T00:04:28.810Z,100313.86
2019-01-11T00:06:56.586Z,100313.16
2019-01-11T00:09:24.418Z,100302.09
2019-01-11T00:11:52.173Z,100312.09
2019-01-11T00:14:19.970Z,100313.87
2019-01-11T00:16:47.778Z,100310.45
2019-01-11T00:19:15.599Z,100309.70
2019-01-11T00:21:43.404Z,100313.31
2019-01-11T00:24:11.265Z,100303.88
2019-01-11T00:26:39.048Z,100304.67
2019-01-11T00:29:06.911Z,100299.88
2019-01-11T00:31:34.689Z,100301.17
2019-01-11T00:34:02.623Z,100296.62
2019-01-11T00:36:30.421Z,100296.22
2019-01-11T00:38:59.563Z,100296.41
2019-01-11T00:41:27.604Z,100295.55
2019-01-11T00:43:55.409Z,100297.63
2019-01-11T00:46:23.229Z,100290.01
2019-01-11T00:48:51.822Z,100281.53
2019-01-11T00:51:19.890Z,100282.46
2019-01-11T00:53:47.687Z,100272.48
2019-01-11T00:56:20.552Z,100277.45
2019-01-11T00:58:48.372Z,100285.02
2019-01-11T01:01:16.204Z,100282.84
2019-01-11T01:03:43.991Z,100280.83
2019-01-11T01:06:12.036Z,100281.04
2019-01-11T01:08:39.802Z,100288.70
2019-01-11T01:11:07.601Z,100280.69
2019-01-11T01:13:35.450Z,100290.09
2019-01-11T01:16:03.760Z,100290.58
2019-01-11T01:18:31.674Z,100295.13
2019-01-11T01:20:59.438Z,100295.53
2019-01-11T01:23:27.246Z,100289.30
2019-01-11T01:25:55.019Z,100294.32
2019-01-11T01:28:27.992Z,100298.34
2019-01-11T01:30:55.764Z,100292.39
2019-01-11T01:33:23.555Z,100293.56
2019-01-11T01:35:51.346Z,100294.41
2019-01-11T01:38:24.226Z,100294.33
2019-01-11T01:40:52.090Z,100293.16
2019-01-11T01:43:19.926Z,100291.13
2019-01-11T01:45:47.710Z,100286.95
2019-01-11T01:48:20.516Z,100292.71
2019-01-11T01:50:48.350Z,100290.89
2019-01-11T01:53:16.117Z,100294.86
2019-01-11T01:55:43.943Z,100288.30
2019-01-11T01:58:11.815Z,100290.08
2019-01-11T02:00:39.729Z,100292.52
2019-01-11T02:03:07.497Z,100292.30
2019-01-11T02:05:35.283Z,100292.83
2019-01-11T02:08:03.494Z,100287.39
2019-01-11T02:10:31.284Z,100290.08
2019-01-11T02:12:59.040Z,100287.94
2019-01-11T02:15:26.830Z,100286.03
2019-01-11T02:18:25.082Z,100285.20
2019-01-11T02:20:52.912Z,100280.48
2019-01-11T02:23:20.676Z,100270.47
2019-01-11T02:25:48.466Z,100272.97
2019-01-11T02:28:16.372Z,100271.23
2019-01-11T02:30:44.147Z,100267.82
2019-01-11T02:33:11.915Z,100264.31
2019-01-11T02:35:39.715Z,100262.28
2019-01-11T02:38:07.524Z,100262.57
2019-01-11T02:40:35.358Z,100261.48
2019-01-11T02:43:03.137Z,100255.44
2019-01-11T02:45:30.901Z,100256.09
2019-01-11T02:47:58.700Z,100255.19
2019-01-11T02:50:26.467Z,100254.05
2019-01-11T02:52:54.289Z,100249.05
2019-01-11T02:55:22.070Z,100244.16
2019-01-11T02:57:49.862Z,100247.02
2019-01-11T03:00:19.516Z,100249.93
2019-01-11T03:02:47.707Z,100248.45
2019-01-11T03:05:16.866Z,100249.54
2019-01-11T03:08:04.374Z,100255.39
2019-01-11T03:10:32.200Z,100257.34
2019-01-11T03:12:59.976Z,100253.89
2019-01-11T03:15:27.888Z,100254.81
2019-01-11T03:17:55.914Z,100249.66
2019-01-11T03:20:23.722Z,100248.02
2019-01-11T03:22:51.504Z,100242.41
2019-01-11T03:25:19.328Z,100242.99
2019-01-11T03:27:52.277Z,100244.20
2019-01-11T03:30:20.572Z,100244.91
2019-01-11T03:32:48.683Z,100241.42
2019-01-11T03:35:18.384Z,100240.80
2019-01-11T03:37:56.244Z,100243.14
2019-01-11T03:40:25.641Z,100246.66
2019-01-11T03:42:53.657Z,100251.97
2019-01-11T03:45:24.106Z,100251.47
2019-01-11T03:48:16.548Z,100250.84
2019-01-11T03:50:44.392Z,100252.75
2019-01-11T03:53:12.187Z,100249.73
2019-01-11T03:55:40.018Z,100250.42
2019-01-11T03:58:32.444Z,100255.88
2019-01-11T04:01:00.275Z,100248.31
2019-01-11T04:03:28.052Z,100252.39
2019-01-11T04:05:55.885Z,100254.91
2019-01-11T04:08:23.664Z,100250.84
2019-01-11T04:10:52.016Z,100252.26
2019-01-11T04:13:19.919Z,100248.99
2019-01-11T04:15:47.644Z,100251.75
2019-01-11T04:18:32.483Z,100251.42
2019-01-11T04:21:00.372Z,100256.73
2019-01-11T04:23:28.202Z,100256.22
2019-01-11T04:25:56.183Z,100256.96
2019-01-11T04:28:24.032Z,100254.13
2019-01-11T04:30:51.849Z,100255.72
2019-01-11T04:33:42.031Z,100251.60
2019-01-11T04:36:09.863Z,100259.59
2019-01-11T04:38:37.649Z,100262.81
2019-01-11T04:41:05.579Z,100256.05
2019-01-11T04:43:33.343Z,100209.56
2019-01-11T04:46:01.194Z,100250.41
2019-01-11T04:48:29.867Z,100251.34
2019-01-11T04:50:57.679Z,100246.12
2019-01-11T04:53:25.510Z,100243.25
2019-01-11T04:55:53.268Z,100241.46
2019-01-11T04:58:21.068Z,100229.28
2019-01-11T05:00:48.909Z,100242.89
2019-01-11T05:03:16.698Z,100234.95
2019-01-11T05:05:44.563Z,100236.98
2019-01-11T05:08:12.479Z,100236.53
2019-01-11T05:10:40.307Z,100219.16
2019-01-11T05:13:25.930Z,100234.30
2019-01-11T05:15:53.722Z,100234.63
2019-01-11T05:18:21.500Z,100239.41
2019-01-11T05:20:49.322Z,100236.97
2019-01-11T05:23:17.136Z,100236.34
2019-01-11T05:25:44.976Z,100235.38
2019-01-11T05:28:13.539Z,100229.95
2019-01-11T05:30:41.404Z,100222.88
2019-01-11T05:33:09.145Z,100224.78
2019-01-11T05:35:36.933Z,100225.00
2019-01-11T05:38:04.743Z,100222.36
2019-01-11T05:40:32.527Z,100220.72
2019-01-11T05:43:00.283Z,100216.73
2019-01-11T05:45:28.093Z,100208.75
2019-01-11T05:47:55.932Z,100206.06
2019-01-11T05:50:24.492Z,100204.23
2019-01-11T05:52:52.366Z,100200.18
2019-01-11T05:55:39.939Z,100196.73
2019-01-11T05:58:30.061Z,100196.36
2019-01-11T06:00:58.071Z,100196.56
2019-01-11T06:03:29.085Z,100195.35
2019-01-11T06:05:59.953Z,100198.98
2019-01-11T06:08:31.386Z,100192.83
2019-01-11T06:10:59.125Z,100196.44
2019-01-11T06:13:26.963Z,100196.72
2019-01-11T06:15:54.933Z,100190.06
2019-01-11T06:18:22.757Z,100189.36
2019-01-11T06:20:50.737Z,100185.08
2019-01-11T06:23:18.521Z,100185.58
2019-01-11T06:25:46.340Z,100187.57
2019-01-11T06:28:14.139Z,100185.27
2019-01-11T06:30:42.043Z,100181.11
2019-01-11T06:33:09.885Z,100178.75
2019-01-11T06:35:38.335Z,100183.84
2019-01-11T06:38:06.192Z,100179.27
2019-01-11T06:40:33.996Z,100183.05
2019-01-11T06:43:03.692Z,100186.76
2019-01-11T06:45:31.596Z,100193.05
2019-01-11T06:47:59.596Z,100185.27
2019-01-11T06:50:27.391Z,100183.91
2019-01-11T06:52:55.536Z,100179.42
2019-01-11T06:55:23.403Z,100173.53
2019-01-11T06:57:51.187Z,100175.16
2019-01-11T07:00:18.956Z,100176.54
2019-01-11T07:02:46.881Z,100174.47
2019-01-11T07:05:14.677Z,100168.15
2019-01-11T07:07:42.537Z,100177.75
2019-01-11T07:10:16.571Z,100172.05
2019-01-11T07:12:44.399Z,100176.23
2019-01-11T07:15:12.278Z,100170.95
2019-01-11T07:17:40.102Z,100171.77
2019-01-11T07:20:09.258Z,100171.06
2019-01-11T07:22:37.113Z,100170.32
2019-01-11T07:25:05.276Z,100175.92
2019-01-11T07:27:37.916Z,100176.27
2019-01-11T07:30:06.775Z,100179.74
2019-01-11T07:32:34.553Z,100174.09
2019-01-11T07:35:02.561Z,100175.70
2019-01-11T07:37:30.386Z,100175.38
2019-01-11T07:39:58.147Z,100173.68
2019-01-11T07:42:25.987Z,100173.84
2019-01-11T07:44:53.760Z,100169.71
2019-01-11T07:47:26.649Z,100166.45
2019-01-11T07:49:54.432Z,100167.39
2019-01-11T07:52:22.251Z,100165.09
2019-01-11T07:54:50.010Z,100161.45
2019-01-11T07:57:17.867Z,100157.78
2019-01-11T07:59:45.669Z,100155.13
2019-01-11T08:02:13.602Z,100158.95
2019-01-11T08:04:41.346Z,100154.98
2019-01-11T08:07:09.198Z,100158.41
2019-01-11T08:09:37.080Z,100156.23
2019-01-11T08:12:04.934Z,100154.20
2019-01-11T08:14:32.709Z,100142.83
2019-01-11T08:17:00.540Z,100147.53
2019-01-11T08:19:28.469Z,100145.70
2019-01-11T08:21:56.247Z,100151.73
2019-01-11T08:24:24.046Z,100141.81
2019-01-11T08:26:52.667Z,100142.73
2019-01-11T08:29:20.489Z,100136.92
2019-01-11T08:31:48.213Z,100137.88
2019-01-11T08:34:16.123Z,100134.84
2019-01-11T08:36:43.993Z,100138.95
2019-01-11T08:39:11.863Z,100131.77
2019-01-11T08:41:39.622Z,100131.45
2019-01-11T08:44:07.375Z,100134.02
2019-01-11T08:46:35.228Z,100131.25
2019-01-11T08:49:02.990Z,100138.75
2019-01-11T08:51:30.799Z,100146.96
2019-01-11T08:53:58.618Z,100147.12
2019-01-11T08:56:26.410Z,100146.42
2019-01-11T08:58:54.200Z,100149.76
2019-01-11T09:01:22.059Z,100148.46
2019-01-11T09:03:50.105Z,100140.09
2019-01-11T09:06:18.000Z,100141.23
2019-01-11T09:08:46.040Z,100140.00
2019-01-11T09:11:13.811Z,100140.33
2019-01-11T09:13:41.595Z,100145.00
2019-01-11T09:16:09.396Z,100140.91
2019-01-11T09:18:48.324Z,100137.41
2019-01-11T09:21:16.206Z,100139.91
2019-01-11T09:23:44.094Z,100139.81
2019-01-11T09:26:12.025Z,100135.75
2019-01-11T09:28:40.621Z,100133.70
2019-01-11T09:31:08.936Z,100129.94
2019-01-11T09:33:36.726Z,100118.31
2019-01-11T09:36:04.603Z,100118.70
2019-01-11T09:38:32.346Z,100117.24
2019-01-11T09:41:00.323Z,100123.66
2019-01-11T09:43:28.146Z,100122.27
2019-01-11T09:45:57.318Z,100128.23
2019-01-11T09:48:25.081Z,100122.39
2019-01-11T09:50:52.935Z,100115.64
2019-01-11T09:53:20.726Z,100116.16
2019-01-11T09:55:48.536Z,100116.45
2019-01-11T09:58:16.357Z,100123.07
2019-01-11T10:00:44.268Z,100118.13
2019-01-11T10:03:12.352Z,100110.47
2019-01-11T10:05:41.256Z,100109.36
2019-01-11T10:08:09.107Z,100067.14
2019-01-11T10:10:36.965Z,100100.85
2019-01-11T10:13:04.780Z,100100.30
2019-01-11T10:15:32.797Z,100099.88
2019-01-11T10:18:00.692Z,100105.95
2019-01-11T10:20:28.474Z,100103.48
2019-01-11T10:22:56.285Z,100101.80
2019-01-11T10:25:24.138Z,100099.61
2019-01-11T10:27:51.936Z,100100.27
2019-01-11T10:30:21.530Z,100094.58
2019-01-11T10:32:49.367Z,100099.28
2019-01-11T10:35:17.279Z,100099.25
2019-01-11T10:37:45.014Z,100099.75
2019-01-11T10:40:14.538Z,100100.56
2019-01-11T10:42:42.641Z,100096.84
2019-01-11T10:45:17.665Z,100090.88
2019-01-11T10:47:45.559Z,100093.38
2019-01-11T10:50:15.549Z,100093.55
2019-01-11T10:52:43.445Z,100092.08
2019-01-11T10:55:12.426Z,100087.55
2019-01-11T10:57:40.521Z,100085.77
2019-01-11T11:00:24.637Z,100075.39
2019-01-11T11:02:54.080Z,100064.71
2019-01-11T11:05:22.059Z,100066.27
2019-01-11T11:07:49.896Z,100066.73
2019-01-11T11:10:17.823Z,100058.52
2019-01-11T11:12:45.588Z,100060.44
2019-01-11T11:15:14.586Z,100054.85
2019-01-11T11:17:42.393Z,100049.42
2019-01-11T11:20:12.878Z,100054.07
2019-01-11T11:22:40.886Z,100050.60
2019-01-11T11:25:11.187Z,100045.41
2019-01-11T11:27:39.153Z,100044.40
2019-01-11T11:30:09.469Z,100038.31
2019-01-11T11:33:05.740Z,100035.09
2019-01-11T11:35:33.521Z,100033.37
2019-01-11T11:38:01.375Z,100022.09
2019-01-11T11:40:32.202Z,100024.94
2019-01-11T11:43:00.054Z,100022.86
2019-01-11T11:45:28.525Z,100019.19
2019-01-11T11:48:01.976Z,100021.20
2019-01-11T11:50:30.343Z,100018.81
2019-01-11T11:52:58.718Z,100020.44
2019-01-11T11:55:27.128Z,100018.02
2019-01-11T11:57:55.585Z,100009.39
2019-01-11T12:00:26.482Z,100010.44
2019-01-11T12:02:54.932Z,100008.41
2019-01-11T12:05:23.389Z,100010.95
2019-01-11T12:07:57.177Z,100018.00
2019-01-11T12:10:25.488Z,100011.30
2019-01-11T12:12:53.768Z,100003.46
2019-01-11T12:15:22.068Z,100000.75
2019-01-11T12:17:49.869Z,99983.16
2019-01-11T12:20:40.709Z,99981.62
2019-01-11T12:23:09.002Z,99981.54
2019-01-11T12:25:39.387Z,99977.91
2019-01-11T12:28:12.596Z,99979.20
2019-01-11T12:30:40.926Z,99977.28
2019-01-11T12:33:09.206Z,99980.58
2019-01-11T12:35:37.472Z,99979.61
2019-01-11T12:38:05.600Z,99966.41
2019-01-11T12:40:34.068Z,99972.87
2019-01-11T12:43:02.212Z,99974.47
2019-01-11T12:45:30.469Z,99967.16
2019-01-11T12:47:58.731Z,99966.09
2019-01-11T12:50:27.739Z,99964.88
2019-01-11T12:52:56.016Z,99960.41
2019-01-11T12:55:24.423Z,99955.98
2019-01-11T12:57:52.663Z,99958.97
2019-01-11T13:00:21.126Z,99955.74
2019-01-11T13:02:49.382Z,99952.95
2019-01-11T13:05:19.765Z,99953.59
2019-01-11T13:08:25.735Z,99954.87
2019-01-11T13:10:54.107Z,99944.09
2019-01-11T13:13:22.274Z,99933.66
2019-01-11T13:15:50.591Z,99925.83
2019-01-11T13:18:19.164Z,99928.67
2019-01-11T13:20:47.500Z,99929.86
2019-01-11T13:23:15.898Z,99941.98
2019-01-11T13:25:44.287Z,99944.17
2019-01-11T13:28:12.740Z,99949.08
2019-01-11T13:30:41.382Z,99939.22
2019-01-11T13:33:12.473Z,99934.67
2019-01-11T13:36:00.450Z,99936.02
2019-01-11T13:38:28.770Z,99939.58
2019-01-11T13:40:56.994Z,99943.03
2019-01-11T13:43:25.289Z,99939.30
2019-01-11T13:45:53.918Z,99937.59
2019-01-11T13:48:22.264Z,99938.13
2019-01-11T13:50:50.356Z,99937.48
2019-01-11T13:53:20.139Z,99946.59
2019-01-11T13:55:48.690Z,99947.56
2019-01-11T13:58:22.340Z,99940.66
2019-01-11T14:01:10.124Z,99937.33
2019-01-11T14:03:37.943Z,99934.50
2019-01-11T14:06:06.183Z,99931.41
2019-01-11T14:08:34.732Z,99923.77
2019-01-11T14:11:03.247Z,99926.18
2019-01-11T14:13:31.541Z,99929.81
2019-01-11T14:16:00.026Z,99932.20
2019-01-11T14:18:28.390Z,99931.87
2019-01-11T14:20:56.719Z,99927.66
2019-01-11T14:23:25.200Z,99926.45
2019-01-11T14:25:53.552Z,99927.68
2019-01-11T14:28:21.876Z,99928.25
2019-01-11T14:30:50.247Z,99924.34
2019-01-11T14:33:18.522Z,99924.70
2019-01-11T14:35:46.827Z,99918.55
2019-01-11T14:38:15.275Z,99920.47
2019-01-11T14:40:46.361Z,99921.34
2019-01-11T14:43:14.731Z,99928.47
2019-01-11T14:45:42.990Z,99927.36
2019-01-11T14:48:11.519Z,99926.87
2019-01-11T14:50:39.723Z,99927.89
2019-01-11T14:53:08.124Z,99924.73
2019-01-11T14:55:36.479Z,99923.29
2019-01-11T14:58:04.867Z,99923.50
2019-01-11T15:00:33.427Z,99926.45
2019-01-11T15:03:02.534Z,99921.36
2019-01-11T15:05:30.432Z,99914.80
2019-01-11T15:07:58.237Z,99906.84
2019-01-11T15:10:26.050Z,99907.54
2019-01-11T15:12:53.931Z,99900.55
2019-01-11T15:15:21.669Z,99900.20
2019-01-11T15:17:49.604Z,99896.87
2019-01-11T15:20:20.669Z,99903.23
2019-01-11T15:22:49.051Z,99882.92
2019-01-11T15:25:17.348Z,99895.62
2019-01-11T15:27:50.939Z,99899.03
2019-01-11T15:30:20.195Z,99901.14
2019-01-11T15:32:48.813Z,99895.73
2019-01-11T15:35:17.597Z,99896.70
2019-01-11T15:37:45.901Z,99899.57
2019-01-11T15:40:26.702Z,99901.08
2019-01-11T15:42:55.388Z,99905.54
2019-01-11T15:45:25.743Z,99906.27
2019-01-11T15:47:53.632Z,99908.32
2019-01-11T15:51:03.216Z,99905.50
2019-01-11T15:53:36.660Z,99902.98
2019-01-11T15:56:13.704Z,99900.63
2019-01-11T15:58:48.926Z,99899.21
2019-01-11T16:01:17.178Z,99891.98
2019-01-11T16:03:45.964Z,99885.23
2019-01-11T16:06:32.352Z,99890.19
2019-01-11T16:10:00.379Z,99886.75
2019-01-11T16:13:29.271Z,99846.39
2019-01-11T16:16:33.142Z,99883.53
2019-01-11T16:19:01.665Z,99882.53
2019-01-11T16:21:32.166Z,99884.64
2019-01-11T16:24:00.547Z,99879.31
2019-01-11T16:26:30.697Z,99875.72
2019-01-11T16:28:58.925Z,99879.48
2019-01-11T16:31:27.707Z,99883.48
2019-01-11T16:33:55.985Z,99884.49
2019-01-11T16:36:23.848Z,99871.64
2019-01-11T16:38:51.837Z,99874.59
2019-01-11T16:41:19.707Z,99882.02
2019-01-11T16:43:47.659Z,99885.06
2019-01-11T16:46:16.734Z,99872.56
2019-01-11T16:48:44.558Z,99875.14
2019-01-11T16:51:12.749Z,99876.28
2019-01-11T16:53:40.915Z,99871.55
2019-01-11T16:56:08.795Z,99869.49
2019-01-11T16:58:36.670Z,99869.14
2019-01-11T17:01:04.810Z,99869.11
2019-01-11T17:03:32.570Z,99875.39
2019-01-11T17:06:00.328Z,99873.83
2019-01-11T17:08:28.164Z,99871.79
2019-01-11T17:10:55.972Z,99863.22
2019-01-11T17:13:23.765Z,99861.32
2019-01-11T17:15:51.570Z,99861.41
2019-01-11T17:18:19.724Z,99863.76
2019-01-11T17:20:47.449Z,99875.27
2019-01-11T17:23:15.278Z,99869.61
2019-01-11T17:25:43.031Z,99867.17
2019-01-11T17:28:10.842Z,99864.90
2019-01-11T17:30:38.694Z,99858.22
2019-01-11T17:33:06.466Z,99859.92
2019-01-11T17:35:34.276Z,99849.39
2019-01-11T17:38:02.119Z,99838.91
2019-01-11T17:40:29.928Z,99845.33
2019-01-11T17:42:57.715Z,99848.22
2019-01-11T17:45:25.544Z,99849.44
2019-01-11T17:47:53.405Z,99854.17
2019-01-11T17:50:21.211Z,99859.38
2019-01-11T17:52:49.063Z,99861.32
2019-01-11T17:55:16.915Z,99852.55
2019-01-11T17:57:44.741Z,99851.00
2019-01-11T18:00:16.126Z,99846.47
2019-01-11T18:02:43.991Z,99847.84
2019-01-11T18:05:13.785Z,99854.88
2019-01-11T18:07:41.708Z,99857.37
2019-01-11T18:10:13.944Z,99860.86
2019-01-11T18:12:42.376Z,99870.24
2019-01-11T18:15:17.229Z,99866.07
2019-01-11T18:17:48.154Z,99867.97
2019-01-11T18:20:23.225Z,99866.70
2019-01-11T18:22:51.175Z,99870.47
2019-01-11T18:25:19.104Z,99830.43
2019-01-11T18:27:46.949Z,99863.97
2019-01-11T18:30:15.468Z,99871.66
2019-01-11T18:32:43.348Z,99865.63
2019-01-11T18:35:15.565Z,99863.07
2019-01-11T18:37:51.292Z,99863.69
2019-01-11T18:40:23.584Z,99862.19
2019-01-11T18:42:51.463Z,99868.31
2019-01-11T18:45:28.718Z,99866.08
2019-01-11T18:47:58.713Z,99862.38
2019-01-11T18:50:28.261Z,99829.67
2019-01-11T18:52:56.134Z,99870.22
2019-01-11T18:55:30.277Z,99862.98
2019-01-11T18:57:58.063Z,99860.47
2019-01-11T19:00:34.821Z,99861.94
2019-01-11T19:03:05.107Z,99866.81
2019-01-11T19:05:32.971Z,99864.05
2019-01-11T19:08:03.512Z,99866.23
2019-01-11T19:10:31.343Z,99871.81
2019-01-11T19:13:00.997Z,99870.63
2019-01-11T19:15:33.318Z,99866.64
2019-01-11T19:18:01.873Z,99866.91
2019-01-11T19:20:32.506Z,99869.55
2019-01-11T19:23:03.364Z,99871.34
2019-01-11T19:25:31.269Z,99868.83
2019-01-11T19:28:00.900Z,99861.08
2019-01-11T19:30:31.058Z,99867.45
2019-01-11T19:32:59.138Z,99865.02
2019-01-11T19:35:26.999Z,99862.98
2019-01-11T19:37:54.954Z,99861.28
2019-01-11T19:40:22.881Z,99863.45
2019-01-11T19:42:50.831Z,99861.77
2019-01-11T19:45:19.117Z,99863.94
2019-01-11T19:47:47.392Z,99864.10
2019-01-11T19:50:21.636Z,99868.84
2019-01-11T19:52:50.354Z,99868.93
2019-01-11T19:55:18.844Z,99860.09
2019-01-11T19:57:47.067Z,99856.32
2019-01-11T20:00:24.591Z,99863.67
2019-01-11T20:02:53.377Z,99825.92
2019-01-11T20:05:21.684Z,99859.93
2019-01-11T20:07:50.408Z,99858.80
2019-01-11T20:10:37.926Z,99859.02
2019-01-11T20:13:06.949Z,99858.20
2019-01-11T20:15:35.207Z,99850.93
2019-01-11T20:18:04.334Z,99848.91
2019-01-11T20:20:32.709Z,99853.00
2019-01-11T20:23:02.387Z,99850.30
2019-01-11T20:25:30.870Z,99850.30
2019-01-11T20:27:59.083Z,99847.66
2019-01-11T20:30:28.102Z,99849.90
2019-01-11T20:32:56.269Z,99847.70
2019-01-11T20:35:24.950Z,99847.58
2019-01-11T20:37:53.326Z,99845.04
2019-01-11T20:40:21.656Z,99840.51
2019-01-11T20:42:49.833Z,99844.37
2019-01-11T20:45:20.186Z,99844.11
2019-01-11T20:47:48.704Z,99844.24
2019-01-11T20:50:19.879Z,99848.03
2019-01-11T20:52:48.214Z,99844.06
2019-01-11T20:55:16.444Z,99852.24
2019-01-11T20:57:44.698Z,99856.09
2019-01-11T21:00:28.869Z,99856.89
2019-01-11T21:02:57.184Z,99857.46
2019-01-11T21:05:26.508Z,99856.11
2019-01-11T21:07:54.837Z,99860.48
2019-01-11T21:10:23.135Z,99864.20
2019-01-11T21:12:51.418Z,99870.37
2019-01-11T21:15:19.819Z,99876.16
2019-01-11T21:17:48.225Z,99877.53
2019-01-11T21:20:17.752Z,99879.32
2019-01-11T21:22:46.441Z,99882.98
2019-01-11T21:25:15.861Z,99872.39
2019-01-11T21:27:44.170Z,99873.37
2019-01-11T21:30:22.161Z,99877.53
2019-01-11T21:32:50.459Z,99873.28
2019-01-11T21:35:18.709Z,99869.56
2019-01-11T21:37:47.112Z,99858.05
2019-01-11T21:40:17.027Z,99862.17
2019-01-11T21:42:44.976Z,99862.08
2019-01-11T21:45:13.122Z,99858.01
2019-01-11T21:47:40.945Z,99863.75
2019-01-11T21:50:12.857Z,99863.56
2019-01-11T21:52:40.627Z,99862.70
2019-01-11T21:55:09.198Z,99863.87
2019-01-11T21:57:37.164Z,99866.59
2019-01-11T22:00:10.074Z,99868.94
2019-01-11T22:02:37.958Z,99874.56
2019-01-11T22:05:05.894Z,99872.33
2019-01-11T22:07:33.788Z,99830.30
2019-01-11T22:10:01.903Z,99872.77
2019-01-11T22:12:29.818Z,99870.03
2019-01-11T22:14:58.008Z,99869.77
2019-01-11T22:17:25.857Z,99866.52
2019-01-11T22:19:53.714Z,99867.70
2019-01-11T22:22:21.544Z,99866.63
2019-01-11T22:24:49.524Z,99859.45
2019-01-11T22:27:17.316Z,99859.19
2019-01-11T22:29:50.395Z,99855.49
2019-01-11T22:32:18.411Z,99857.47
2019-01-11T22:34:46.278Z,99858.77
2019-01-11T22:37:14.109Z,99854.05
2019-01-11T22:39:41.906Z,99848.64
2019-01-11T22:42:09.714Z,99852.42
2019-01-11T22:44:37.533Z,99853.42
2019-01-11T22:47:05.437Z,99851.11
2019-01-11T22:49:33.297Z,99857.40
2019-01-11T22:52:01.063Z,99860.61
2019-01-11T22:54:28.908Z,99863.91
2019-01-11T22:56:56.704Z,99864.93
2019-01-11T22:59:24.572Z,99865.30
2019-01-11T23:02:35.671Z,99869.61
2019-01-11T23:05:07.263Z,99867.42
2019-01-11T23:07:57.974Z,99863.70
2019-01-11T23:11:09.705Z,99873.27
2019-01-11T23:13:37.472Z,99872.71
2019-01-11T23:16:39.447Z,99872.80
2019-01-11T23:19:26.701Z,99871.74
2019-01-11T23:21:54.546Z,99875.12
2019-01-11T23:24:22.311Z,99882.77
2019-01-11T23:26:50.290Z,99882.46
2019-01-11T23:29:18.093Z,99879.74
2019-01-11T23:31:45.918Z,99882.85
2019-01-11T23:34:13.757Z,99880.58
2019-01-11T23:36:51.777Z,99872.07
2019-01-11T23:39:19.560Z,99884.94
2019-01-11T23:41:47.355Z,99885.59
2019-01-11T23:44:15.274Z,99884.21
2019-01-11T23:46:43.099Z,99889.38
2019-01-11T23:49:10.960Z,99890.42
2019-01-11T23:51:38.795Z,99893.70
2019-01-11T23:54:06.623Z,99885.58
2019-01-11T23:56:34.542Z,99893.88
2019-01-11T23:59:02.321Z,99881.65
